Terminal Aerodrome Forecast
Issued by NWS Buffalo, NY

Home | Current Version | Previous Version | Text Only | Print | Product List | Glossary On
Versions: 1 2 3 4 5 6 7 8 9 10 11 12 13 14 15 16 17 18 19 20 21 22 23 24 25 26
000
FTUS41 KBUF 042320
TAFART
TAF
KART 042320Z 0500/0524 22008KT P6SM VCSH BKN080
      TEMPO 0500/0504 6SM -SHRA BKN050
     FM050500 VRB03KT P6SM VCSH OVC060
     FM050800 25004KT P6SM BKN050
     FM051100 27007KT P6SM VCSH BKN045
     FM051700 26014KT 6SM -SHRA BKN060
     FM052200 25012KT P6SM VCSH BKN045=

USA.gov is the U.S. government's official web portal to all federal, state and local government web resources and services.